Time;durP1;ratioP1;P1;durP2;ratioP2;P2;SDS_P1;SDS_P2;PMS_P1;PMS_P2;Temp;Humidity;BMP_temperature;BMP_pressure;BME280_temperature;BME280_humidity;BME280_pressure;Samples;Min_cycle;Max_cycle;Signal;HPM_P1;HPM_P2
2023/07/04 00:00:12;;;;;;;7.35;1.85;;;;;;;24.53;36.15;100927.50;4936445;28;20040;-64
2023/07/04 00:02:37;;;;;;;8.48;2.58;;;;;;;24.54;35.88;100929.16;4920542;29;20419;-64
2023/07/04 00:05:03;;;;;;;9.18;1.58;;;;;;;24.53;36.59;100937.59;4937465;29;20036;-64
2023/07/04 00:07:31;;;;;;;9.27;2.17;;;;;;;24.51;36.39;100934.25;4936207;29;20028;-65
2023/07/04 00:09:58;;;;;;;9.52;1.92;;;;;;;24.48;36.58;100935.53;4933068;28;20508;-64
2023/07/04 00:12:24;;;;;;;7.40;1.63;;;;;;;24.49;36.31;100937.19;4934709;29;20527;-64
2023/07/04 00:14:49;;;;;;;6.97;1.75;;;;;;;24.46;36.34;100934.88;4935985;28;20044;-64
2023/07/04 00:17:18;;;;;;;7.85;2.40;;;;;;;24.43;36.64;100934.50;4950968;28;20066;-64
2023/07/04 00:19:44;;;;;;;7.22;1.70;;;;;;;24.41;36.25;100937.44;4936301;29;20062;-64
2023/07/04 00:22:09;;;;;;;11.73;1.70;;;;;;;24.38;36.07;100939.75;4936141;29;20047;-64
2023/07/04 00:24:35;;;;;;;6.88;1.48;;;;;;;24.38;36.70;100943.34;4920425;29;20095;-64
2023/07/04 00:27:00;;;;;;;4.22;1.60;;;;;;;24.36;37.29;100942.72;4932772;28;20039;-64
2023/07/04 00:29:27;;;;;;;8.95;2.10;;;;;;;24.32;36.86;100941.47;4941733;29;20561;-64
2023/07/04 00:31:52;;;;;;;11.57;1.73;;;;;;;24.32;36.92;100935.97;4939244;29;20035;-64
2023/07/04 00:34:17;;;;;;;11.32;1.58;;;;;;;24.30;37.46;100943.59;4922929;29;20059;-64
2023/07/04 00:36:43;;;;;;;10.20;2.20;;;;;;;24.29;36.92;100930.94;4939049;29;20054;-64
2023/07/04 00:39:09;;;;;;;5.80;1.30;;;;;;;24.26;36.80;100942.34;4939047;29;20063;-64
2023/07/04 00:41:36;;;;;;;5.70;1.52;;;;;;;24.26;36.83;100936.88;4956109;28;20031;-65
2023/07/04 00:44:09;;;;;;;5.57;1.70;;;;;;;24.25;37.37;100935.19;4956159;28;20035;-64
2023/07/04 00:47:01;;;;;;;8.88;2.95;;;;;;;24.24;36.76;100944.44;4915196;29;20035;-64
2023/07/04 00:49:37;;;;;;;6.45;2.05;;;;;;;24.21;37.34;100939.38;4939460;28;20043;-64
2023/07/04 00:52:07;;;;;;;9.95;2.15;;;;;;;24.22;37.76;100941.09;4954843;29;20031;-65
2023/07/04 00:54:36;;;;;;;3.63;1.23;;;;;;;24.23;37.79;100931.81;4954615;29;20520;-64
2023/07/04 00:57:02;;;;;;;10.88;2.15;;;;;;;24.24;38.06;100944.44;4954860;29;20496;-64
2023/07/04 00:59:31;;;;;;;10.90;2.00;;;;;;;24.24;37.51;100938.97;4954967;29;20468;-64
2023/07/04 01:01:57;;;;;;;3.95;1.30;;;;;;;24.19;37.41;100936.88;4939221;29;20046;-64
2023/07/04 01:04:23;;;;;;;8.60;1.60;;;;;;;24.17;37.87;100940.91;4953965;28;20038;-64
2023/07/04 01:06:55;;;;;;;9.20;2.03;;;;;;;24.09;37.51;100941.94;4954931;29;20043;-65
2023/07/04 01:09:21;;;;;;;6.80;2.22;;;;;;;24.03;37.30;100942.78;4956316;28;20035;-64
2023/07/04 01:11:49;;;;;;;4.93;1.17;;;;;;;24.01;37.85;100944.06;4938792;29;20032;-64
2023/07/04 01:14:19;;;;;;;7.75;1.85;;;;;;;23.98;37.91;100941.75;4937938;29;20051;-64
2023/07/04 01:16:45;;;;;;;7.53;1.63;;;;;;;23.98;38.62;100950.78;4954807;29;20039;-64
2023/07/04 01:19:12;;;;;;;18.27;2.15;;;;;;;23.89;37.64;100930.19;4955506;29;20411;-64
2023/07/04 01:21:38;;;;;;;6.05;1.98;;;;;;;23.95;38.34;100950.41;4956693;28;20027;-64
2023/07/04 01:24:16;;;;;;;6.80;1.75;;;;;;;23.92;38.26;100946.19;4971716;28;20451;-64
2023/07/04 01:26:45;;;;;;;11.40;2.15;;;;;;;23.90;38.33;100947.47;4970451;28;20047;-64
2023/07/04 01:29:13;;;;;;;7.20;1.80;;;;;;;23.88;38.18;100952.28;4953831;28;20051;-65
2023/07/04 01:31:40;;;;;;;11.82;3.58;;;;;;;23.86;38.30;100943.44;4953163;29;20043;-64
2023/07/04 01:34:07;;;;;;;8.60;1.80;;;;;;;23.83;38.72;100954.81;4939099;29;20635;-65
2023/07/04 01:36:34;;;;;;;5.70;1.20;;;;;;;23.80;38.32;100952.50;4937333;29;20067;-65
2023/07/04 01:39:00;;;;;;;14.48;2.42;;;;;;;23.74;38.56;100957.78;4952470;29;20055;-65
2023/07/04 01:41:26;;;;;;;6.22;1.60;;;;;;;23.74;38.84;100960.50;4954575;28;20039;-65
2023/07/04 01:43:59;;;;;;;9.60;2.50;;;;;;;23.72;38.83;100957.16;4953846;29;20055;-65
2023/07/04 01:46:25;;;;;;;13.65;2.10;;;;;;;23.74;39.46;100954.19;4970987;28;20503;-65
2023/07/04 01:48:51;;;;;;;8.15;1.60;;;;;;;23.74;39.07;100965.13;4955015;29;20043;-65
2023/07/04 01:51:32;;;;;;;13.52;1.65;;;;;;;23.75;38.76;100966.84;4954803;29;20042;-65
2023/07/04 01:53:58;;;;;;;5.78;1.80;;;;;;;23.71;39.42;100963.66;4955543;29;20049;-64
2023/07/04 01:56:24;;;;;;;9.18;1.80;;;;;;;23.70;39.75;100964.72;4955669;29;20572;-64
2023/07/04 01:58:49;;;;;;;11.82;2.17;;;;;;;23.70;39.21;100970.19;4921702;29;20031;-64
2023/07/04 02:01:15;;;;;;;11.93;2.28;;;;;;;23.67;39.68;100967.88;4939710;29;20034;-65
2023/07/04 02:03:41;;;;;;;13.43;2.63;;;;;;;23.68;39.50;100965.97;4941837;29;20031;-65
2023/07/04 02:06:07;;;;;;;7.95;1.77;;;;;;;23.68;39.40;100969.56;4941115;29;20495;-64
2023/07/04 02:08:32;;;;;;;13.77;2.35;;;;;;;23.68;39.77;100961.34;4937054;29;20028;-65
2023/07/04 02:10:58;;;;;;;7.38;2.13;;;;;;;23.68;40.07;100955.03;4955563;29;20035;-64
2023/07/04 02:13:23;;;;;;;9.07;1.75;;;;;;;23.65;39.52;100960.94;4921116;29;20415;-64
2023/07/04 02:15:48;;;;;;;12.82;1.55;;;;;;;23.64;39.34;100959.25;4957962;28;20047;-65
2023/07/04 02:18:15;;;;;;;13.38;2.90;;;;;;;23.64;39.57;100971.06;4951159;29;20046;-67
2023/07/04 02:20:41;;;;;;;5.82;2.47;;;;;;;23.58;40.15;100960.94;4965760;29;20082;-65
2023/07/04 02:23:06;;;;;;;6.55;1.98;;;;;;;23.52;39.72;100952.75;4948882;29;20428;-64
2023/07/04 02:25:32;;;;;;;12.02;2.10;;;;;;;23.48;39.74;100952.31;4944074;29;20037;-64
2023/07/04 02:27:57;;;;;;;13.32;3.42;;;;;;;23.45;40.01;100960.94;4953391;28;20043;-65
2023/07/04 02:30:22;;;;;;;11.32;2.25;;;;;;;23.43;40.62;100960.31;4953268;29;20162;-64
2023/07/04 02:32:48;;;;;;;10.23;2.20;;;;;;;23.39;40.36;100956.31;4937854;29;20043;-64
2023/07/04 02:35:14;;;;;;;8.32;2.22;;;;;;;23.40;40.67;100966.19;4953154;28;20411;-64
2023/07/04 02:37:39;;;;;;;11.60;2.15;;;;;;;23.38;40.37;100960.09;4953325;29;20028;-64
2023/07/04 02:40:06;;;;;;;9.23;2.08;;;;;;;23.38;40.76;100954.63;4954931;28;20058;-64
2023/07/04 02:42:31;;;;;;;8.20;1.90;;;;;;;23.39;40.43;100953.59;4957308;28;20106;-63
2023/07/04 02:44:56;;;;;;;16.73;2.40;;;;;;;23.39;40.03;100956.31;4941092;29;20407;-64
2023/07/04 02:47:26;;;;;;;14.63;2.35;;;;;;;23.39;40.52;100950.00;4973090;28;20035;-64
2023/07/04 02:49:53;;;;;;;9.07;2.17;;;;;;;23.34;40.19;100945.13;4941727;29;20120;-64
2023/07/04 02:52:23;;;;;;;14.80;2.28;;;;;;;23.34;40.46;100947.84;4922038;28;20036;-64
2023/07/04 02:54:49;;;;;;;8.20;1.70;;;;;;;23.32;40.27;100944.50;4957203;28;20395;-65
2023/07/04 02:57:16;;;;;;;9.82;2.00;;;;;;;23.33;40.65;100943.44;4940909;28;20027;-64
2023/07/04 02:59:41;;;;;;;10.40;2.40;;;;;;;23.30;40.08;100951.22;4956495;28;20041;-65
2023/07/04 03:02:07;;;;;;;7.65;2.53;;;;;;;23.27;40.46;100947.00;4924921;28;20122;-65
2023/07/04 03:04:32;;;;;;;9.02;2.03;;;;;;;23.23;40.27;100936.72;4941218;28;20065;-65
2023/07/04 03:06:57;;;;;;;8.38;1.92;;;;;;;23.19;41.10;100939.03;4940844;28;20483;-65
2023/07/04 03:09:23;;;;;;;10.00;2.47;;;;;;;23.19;41.05;100949.94;4957024;28;20023;-64
2023/07/04 03:11:48;;;;;;;14.35;2.35;;;;;;;23.16;40.82;100950.38;4956747;28;20461;-65
2023/07/04 03:14:14;;;;;;;7.32;1.80;;;;;;;23.12;41.41;100944.47;4956525;28;20031;-65
2023/07/04 03:16:39;;;;;;;12.60;2.00;;;;;;;23.09;41.46;100957.69;4940683;28;20023;-65
2023/07/04 03:19:05;;;;;;;7.90;2.78;;;;;;;23.03;40.93;100950.34;4956506;28;20019;-65
2023/07/04 03:21:31;;;;;;;10.00;1.75;;;;;;;22.94;41.17;100948.84;4924606;28;20114;-65
2023/07/04 03:23:57;;;;;;;6.78;1.52;;;;;;;22.94;41.06;100951.59;4956298;28;20031;-65
2023/07/04 03:26:22;;;;;;;8.70;2.33;;;;;;;22.91;41.58;100954.72;4956252;28;20511;-65
2023/07/04 03:28:47;;;;;;;6.10;3.47;;;;;;;22.87;41.55;100948.81;4956320;28;20027;-64
2023/07/04 03:31:13;;;;;;;12.40;2.00;;;;;;;22.84;41.00;100951.97;4956154;28;20035;-64
2023/07/04 03:33:38;;;;;;;13.77;2.78;;;;;;;22.80;41.24;100950.72;4940012;28;20063;-64
2023/07/04 03:36:05;;;;;;;8.63;2.17;;;;;;;22.75;41.14;100947.75;4957396;28;20027;-64
2023/07/04 03:38:31;;;;;;;12.07;2.15;;;;;;;22.70;41.97;100955.72;4940212;28;20038;-64
2023/07/04 03:40:58;;;;;;;4.57;1.95;;;;;;;22.67;41.86;100960.75;4956281;28;20047;-64
2023/07/04 03:43:24;;;;;;;11.63;2.20;;;;;;;22.62;41.75;100953.13;4956414;28;20361;-64
2023/07/04 03:45:49;;;;;;;10.50;2.63;;;;;;;22.60;41.94;100956.06;4956001;28;20514;-64
2023/07/04 03:48:14;;;;;;;13.13;2.08;;;;;;;22.56;41.96;100954.78;4956046;28;20403;-64
2023/07/04 03:50:40;;;;;;;11.90;2.78;;;;;;;22.58;42.28;100960.88;4939765;28;20086;-65
2023/07/04 03:53:06;;;;;;;10.73;2.22;;;;;;;22.60;42.46;100966.16;4955698;29;20046;-65
2023/07/04 03:55:31;;;;;;;6.85;3.13;;;;;;;22.58;42.78;100969.06;4956353;29;20036;-65
2023/07/04 03:57:56;;;;;;;16.20;3.13;;;;;;;22.60;42.28;100966.16;4940526;29;20110;-65
2023/07/04 04:00:22;;;;;;;9.68;2.38;;;;;;;22.64;42.40;100975.63;4956389;29;20439;-65
2023/07/04 04:02:47;;;;;;;15.35;2.80;;;;;;;22.64;42.42;100966.63;4955427;28;20562;-65
2023/07/04 04:05:12;;;;;;;11.43;2.30;;;;;;;22.64;42.24;100975.63;4957178;28;20038;-65
2023/07/04 04:07:38;;;;;;;14.43;2.50;;;;;;;22.61;42.89;100968.66;4956167;28;20047;-65
2023/07/04 04:10:04;;;;;;;11.82;2.13;;;;;;;22.64;42.18;100969.34;4940090;29;20484;-65
2023/07/04 04:12:30;;;;;;;12.30;2.60;;;;;;;22.65;43.02;100973.75;4939322;29;20035;-65
2023/07/04 04:14:57;;;;;;;13.98;2.00;;;;;;;22.68;42.72;100981.53;4955914;29;20098;-65
2023/07/04 04:17:22;;;;;;;15.57;1.95;;;;;;;22.70;42.50;100971.28;4939717;29;20036;-64
2023/07/04 04:19:48;;;;;;;9.88;2.60;;;;;;;22.75;43.12;100996.09;4923614;29;20036;-65
2023/07/04 04:22:14;;;;;;;8.07;2.10;;;;;;;22.76;42.39;100987.66;4956574;28;20480;-65
2023/07/04 04:24:40;;;;;;;12.80;1.70;;;;;;;22.78;42.56;100976.56;4939518;29;20041;-65
2023/07/04 04:27:08;;;;;;;9.55;2.63;;;;;;;22.82;42.98;100980.53;4956441;28;20040;-65
2023/07/04 04:29:35;;;;;;;13.82;2.10;;;;;;;22.87;42.72;100988.97;4955503;29;20047;-65
2023/07/04 04:32:00;;;;;;;10.25;1.83;;;;;;;22.88;42.43;100990.66;4939869;29;20122;-65
2023/07/04 04:34:26;;;;;;;13.15;2.53;;;;;;;22.90;42.88;100988.56;4956325;28;20195;-65
2023/07/04 04:36:53;;;;;;;15.57;3.03;;;;;;;22.91;42.98;100990.25;4955927;29;20404;-65
2023/07/04 04:39:19;;;;;;;6.68;2.22;;;;;;;22.93;42.56;100999.06;4956901;28;20110;-64
2023/07/04 04:41:44;;;;;;;9.63;1.85;;;;;;;22.93;42.56;100993.63;4939321;29;20102;-64
2023/07/04 04:44:09;;;;;;;7.63;1.55;;;;;;;23.01;43.04;100997.00;4954789;28;20043;-65
2023/07/04 04:46:35;;;;;;;9.07;1.90;;;;;;;23.06;42.41;100993.66;4956149;28;20090;-64
2023/07/04 04:49:03;;;;;;;12.13;2.15;;;;;;;23.11;42.95;100991.16;4938955;29;20035;-64
2023/07/04 04:51:31;;;;;;;9.05;2.30;;;;;;;23.16;42.21;100983.16;4954757;29;20035;-64
2023/07/04 04:53:57;;;;;;;13.18;2.42;;;;;;;23.25;42.24;100992.03;4938744;29;20086;-64
2023/07/04 04:56:23;;;;;;;12.13;2.42;;;;;;;23.30;42.38;100984.88;4954967;29;20059;-64
2023/07/04 04:58:48;;;;;;;12.40;3.05;;;;;;;23.40;42.92;100989.94;4935593;29;20100;-64
2023/07/04 05:01:21;;;;;;;11.02;2.42;;;;;;;23.42;42.91;100999.63;4910919;29;20066;-64
2023/07/04 05:03:48;;;;;;;;;;;;;;;23.51;42.71;101001.13;4954625;28;20117;-65
2023/07/04 05:06:13;;;;;;;6.00;1.60;;;;;;;23.60;41.69;100999.03;4954994;29;20350;-64
2023/07/04 05:08:39;;;;;;;12.73;2.90;;;;;;;23.69;42.30;101005.97;4938803;29;20062;-64
2023/07/04 05:11:07;;;;;;;10.75;2.85;;;;;;;23.72;42.71;101002.81;4936161;29;20039;-64
2023/07/04 05:13:37;;;;;;;11.60;2.17;;;;;;;23.78;42.12;101013.75;4946549;28;20063;-64
2023/07/04 05:16:05;;;;;;;11.57;2.25;;;;;;;23.88;42.17;101012.47;4958686;28;20050;-64
2023/07/04 05:18:32;;;;;;;11.27;2.35;;;;;;;23.90;41.70;101007.66;4946299;29;20094;-65
2023/07/04 05:21:03;;;;;;;12.43;3.35;;;;;;;23.86;41.99;101018.19;4963684;29;20062;-64
2023/07/04 05:23:40;;;;;;;17.60;2.50;;;;;;;23.78;42.42;101005.53;4964360;28;20046;-64
2023/07/04 05:26:10;;;;;;;12.93;2.55;;;;;;;23.90;41.90;101013.94;4965047;28;20095;-64
2023/07/04 05:28:36;;;;;;;11.07;2.92;;;;;;;24.02;42.12;101011.41;4960595;29;20036;-64
2023/07/04 05:31:08;;;;;;;8.27;2.15;;;;;;;24.03;41.87;101015.84;4941528;29;20542;-64
2023/07/04 05:33:34;;;;;;;10.68;2.45;;;;;;;23.97;42.18;101013.97;4939932;29;20091;-64
2023/07/04 05:36:03;;;;;;;7.43;2.20;;;;;;;24.09;41.79;101023.22;4937910;29;20063;-65
2023/07/04 05:38:29;;;;;;;6.55;2.30;;;;;;;24.32;42.44;101013.50;4955830;28;20134;-64
2023/07/04 05:40:54;;;;;;;17.75;2.17;;;;;;;24.28;42.58;101025.13;4938499;29;20094;-64
2023/07/04 05:43:20;;;;;;;8.43;2.30;;;;;;;24.28;42.08;101006.78;4937887;29;20035;-64
2023/07/04 05:45:49;;;;;;;15.80;3.30;;;;;;;24.44;41.92;101004.63;4953821;28;20090;-66
2023/07/04 05:48:15;;;;;;;10.05;3.58;;;;;;;24.61;41.56;101008.56;4921939;29;20114;-66
2023/07/04 05:50:50;;;;;;;10.23;2.33;;;;;;;24.52;41.61;101024.41;4969754;28;20119;-64
2023/07/04 05:53:17;;;;;;;9.50;1.67;;;;;;;24.50;42.29;101012.00;4922137;29;20031;-64
2023/07/04 05:55:42;;;;;;;13.77;3.22;;;;;;;24.80;41.65;101016.75;4953540;29;20051;-64
2023/07/04 05:58:08;;;;;;;8.52;1.80;;;;;;;25.03;42.08;101009.91;4937753;29;20499;-64
2023/07/04 06:00:36;;;;;;;15.57;2.67;;;;;;;25.28;40.67;101010.81;4937461;29;20038;-64
2023/07/04 06:03:05;;;;;;;10.43;2.30;;;;;;;25.54;40.67;101018.06;4954705;28;20028;-65
2023/07/04 06:05:30;;;;;;;15.02;2.10;;;;;;;25.78;40.58;101012.56;4922505;29;20060;-64
2023/07/04 06:07:56;;;;;;;14.30;2.80;;;;;;;25.85;40.61;101010.59;4937538;29;20119;-65
2023/07/04 06:10:22;;;;;;;11.88;3.05;;;;;;;25.69;40.95;101015.81;4921651;29;20039;-64
2023/07/04 06:12:49;;;;;;;12.73;2.35;;;;;;;25.64;40.90;101027.47;4937212;29;20042;-65
2023/07/04 06:15:15;;;;;;;14.77;2.30;;;;;;;25.88;40.33;101023.06;4936727;29;20031;-65
2023/07/04 06:17:41;;;;;;;5.63;2.15;;;;;;;25.96;40.44;101029.09;4949890;29;20032;-65
2023/07/04 06:20:06;;;;;;;10.88;3.28;;;;;;;26.01;39.98;101029.28;4934246;28;20040;-64
2023/07/04 06:22:32;;;;;;;12.80;2.75;;;;;;;26.21;39.51;101031.00;4917870;28;20040;-67
2023/07/04 06:24:57;;;;;;;14.68;2.88;;;;;;;26.05;39.98;101033.22;4934178;28;20034;-65
2023/07/04 06:27:24;;;;;;;7.68;2.53;;;;;;;26.08;40.34;101036.59;4929499;28;20405;-68
2023/07/04 06:29:53;;;;;;;9.43;2.25;;;;;;;26.31;39.61;101039.56;4918550;28;20499;-63
2023/07/04 06:32:19;;;;;;;7.93;2.00;;;;;;;26.46;39.89;101038.16;4918691;28;20032;-63
2023/07/04 06:34:44;;;;;;;9.15;2.80;;;;;;;26.53;39.55;101035.31;4933501;28;20062;-64
2023/07/04 06:37:11;;;;;;;7.95;2.10;;;;;;;26.85;39.08;101039.63;4933180;28;20039;-64
2023/07/04 06:39:36;;;;;;;12.90;2.78;;;;;;;27.07;38.20;101038.06;4933267;28;20039;-64
2023/07/04 06:42:02;;;;;;;8.98;2.63;;;;;;;26.95;39.24;101034.41;4924084;29;20032;-64
2023/07/04 06:44:27;;;;;;;7.40;2.83;;;;;;;26.83;38.93;101032.69;4898386;28;20504;-64
2023/07/04 06:46:52;;;;;;;14.60;1.98;;;;;;;27.24;38.74;101042.91;4915246;29;20445;-64
2023/07/04 06:49:18;;;;;;;11.77;1.63;;;;;;;27.49;38.50;101030.72;4898558;29;20040;-64
2023/07/04 06:51:43;;;;;;;9.70;2.10;;;;;;;27.70;38.51;101040.31;4914183;29;20036;-64
2023/07/04 06:54:08;;;;;;;10.98;2.03;;;;;;;27.91;37.15;101050.78;4915671;29;20499;-65
2023/07/04 06:56:35;;;;;;;4.05;2.00;;;;;;;28.15;36.92;101052.50;4898886;29;20016;-65
2023/07/04 06:59:01;;;;;;;11.07;2.15;;;;;;;28.40;37.29;101045.91;4914052;29;20123;-64
2023/07/04 07:01:29;;;;;;;11.88;2.45;;;;;;;28.32;37.73;101052.63;4929706;29;20150;-64
2023/07/04 07:03:55;;;;;;;7.78;2.47;;;;;;;28.59;37.14;101050.19;4929489;28;20032;-64
2023/07/04 07:06:20;;;;;;;10.48;2.60;;;;;;;28.35;37.20;101054.06;4913994;29;20040;-64
2023/07/04 07:08:46;;;;;;;8.02;2.05;;;;;;;28.42;37.09;101057.56;4913725;29;20406;-64
2023/07/04 07:11:14;;;;;;;9.05;2.20;;;;;;;28.54;36.42;101059.22;4912820;29;20055;-64
2023/07/04 07:13:40;;;;;;;11.25;2.47;;;;;;;28.92;36.20;101058.72;4929870;29;20090;-65
2023/07/04 07:16:13;;;;;;;11.15;2.55;;;;;;;28.69;36.49;101064.25;4913789;29;20044;-64
2023/07/04 07:18:40;;;;;;;10.48;1.80;;;;;;;29.08;36.15;101060.69;4924275;29;20506;-66
2023/07/04 07:21:06;;;;;;;9.57;1.55;;;;;;;29.00;35.84;101066.59;4916793;29;20040;-65
2023/07/04 07:23:33;;;;;;;12.95;2.55;;;;;;;28.79;36.65;101064.47;4948609;28;20040;-64
2023/07/04 07:26:00;;;;;;;7.03;1.60;;;;;;;28.82;36.29;101064.84;4949249;28;20047;-64
2023/07/04 07:28:27;;;;;;;7.20;1.63;;;;;;;29.06;35.58;101070.31;4936047;29;20035;-64
2023/07/04 07:31:28;;;;;;;6.88;1.95;;;;;;;28.79;36.40;101072.75;4936061;29;20039;-64
2023/07/04 07:33:53;;;;;;;8.37;1.77;;;;;;;29.09;35.98;101065.09;4910550;28;1175531;-66
2023/07/04 07:36:24;;;;;;;13.57;1.83;;;;;;;29.38;35.22;101068.75;4937087;29;20123;-64
2023/07/04 07:38:52;;;;;;;6.82;1.85;;;;;;;29.72;34.29;101058.63;4920982;29;20492;-64
2023/07/04 07:41:19;;;;;;;8.00;2.00;;;;;;;30.04;34.43;101065.25;4952750;28;20487;-65
2023/07/04 07:43:44;;;;;;;11.90;1.45;;;;;;;30.06;34.87;101060.34;4920848;29;20059;-65
2023/07/04 07:46:12;;;;;;;14.80;2.15;;;;;;;30.02;34.46;101064.69;4920613;29;20040;-64
2023/07/04 07:48:37;;;;;;;9.07;2.50;;;;;;;29.97;34.30;101067.38;4920751;29;20040;-65
2023/07/04 07:51:05;;;;;;;9.27;1.80;;;;;;;30.20;34.22;101063.59;4920917;29;20111;-64
2023/07/04 07:53:30;;;;;;;7.22;1.60;;;;;;;30.50;33.57;101059.41;4936711;29;20060;-64
2023/07/04 07:55:56;;;;;;;5.78;1.60;;;;;;;30.74;33.38;101062.75;4936565;29;20436;-65
2023/07/04 07:58:21;;;;;;;3.20;1.42;;;;;;;30.92;32.75;101064.38;4936602;29;20035;-65
2023/07/04 08:00:46;;;;;;;10.05;1.48;;;;;;;31.09;32.42;101049.41;4936682;28;20543;-65
2023/07/04 08:03:12;;;;;;;6.88;2.33;;;;;;;31.25;31.91;101053.19;4920626;29;20032;-65
2023/07/04 08:05:42;;;;;;;5.32;1.20;;;;;;;31.46;31.35;101055.09;4920405;29;20039;-64
2023/07/04 08:08:09;;;;;;;5.50;0.85;;;;;;;31.69;31.40;101057.53;4937599;29;20087;-64
2023/07/04 08:10:39;;;;;;;4.47;1.30;;;;;;;31.88;31.20;101059.94;4920313;29;20114;-65
2023/07/04 08:13:04;;;;;;;6.57;1.65;;;;;;;32.03;30.75;101063.69;4936280;29;20047;-65
2023/07/04 08:15:30;;;;;;;6.50;1.77;;;;;;;32.17;29.81;101053.81;4936075;28;20024;-65
2023/07/04 08:17:55;;;;;;;4.13;2.00;;;;;;;32.30;30.37;101060.88;4937745;28;20039;-65
2023/07/04 08:20:21;;;;;;;7.50;1.60;;;;;;;32.56;29.65;101068.25;4920159;29;20543;-65
2023/07/04 08:22:47;;;;;;;5.47;1.15;;;;;;;32.75;30.24;101058.38;4951935;28;20126;-65
2023/07/04 08:25:13;;;;;;;4.75;1.20;;;;;;;32.93;29.43;101065.41;4935967;29;20040;-65
2023/07/04 08:27:38;;;;;;;3.33;0.93;;;;;;;32.73;30.10;101066.13;4966641;28;20537;-65
2023/07/04 08:30:04;;;;;;;2.90;1.23;;;;;;;32.86;29.62;101064.78;4939115;29;20094;-66
2023/07/04 08:32:29;;;;;;;4.82;1.10;;;;;;;32.78;28.81;101063.38;4935999;28;20089;-62
2023/07/04 08:34:55;;;;;;;7.47;1.05;;;;;;;32.98;28.89;101056.25;4950717;29;20054;-65
2023/07/04 08:37:21;;;;;;;3.42;1.08;;;;;;;33.18;28.76;101056.34;4953893;28;20051;-64
2023/07/04 08:39:48;;;;;;;11.50;2.13;;;;;;;33.34;28.60;101050.56;4954732;28;20066;-64
2023/07/04 08:42:15;;;;;;;7.55;1.27;;;;;;;33.54;27.72;101049.75;4954716;28;20039;-65
2023/07/04 08:44:49;;;;;;;5.47;1.33;;;;;;;33.54;28.29;101054.47;4948863;28;20578;-65
2023/07/04 08:47:17;;;;;;;2.35;1.02;;;;;;;33.25;28.48;101052.19;4970754;28;20031;-65
2023/07/04 08:49:54;;;;;;;7.88;1.25;;;;;;;33.50;27.95;101057.00;4956337;28;20055;-65
2023/07/04 08:52:28;;;;;;;4.80;1.23;;;;;;;33.43;27.46;101064.75;4939057;29;20032;-65
2023/07/04 08:54:54;;;;;;;4.22;1.67;;;;;;;33.28;28.60;101084.16;4955577;28;20047;-65
2023/07/04 08:57:37;;;;;;;3.92;1.13;;;;;;;33.36;28.12;101083.66;4954750;28;20106;-65
2023/07/04 09:00:09;;;;;;;7.03;2.42;;;;;;;33.34;28.02;101094.16;4935272;28;20036;-65
2023/07/04 09:02:55;;;;;;;4.55;1.20;;;;;;;33.19;27.90;101105.25;4939787;29;20038;-65
2023/07/04 09:05:48;;;;;;;4.63;1.65;;;;;;;32.90;28.16;101103.97;4935204;28;20055;-66
2023/07/04 09:08:49;;;;;;;10.80;1.90;;;;;;;32.76;28.69;101092.50;4946068;28;20561;-65
2023/07/04 09:11:16;;;;;;;5.55;1.42;;;;;;;32.74;28.25;101083.63;4949177;28;20063;-65
2023/07/04 09:13:49;;;;;;;6.35;2.05;;;;;;;32.58;28.03;101084.66;4922790;29;20039;-65
2023/07/04 09:16:34;;;;;;;5.90;1.10;;;;;;;32.74;28.31;101089.19;4954156;28;20038;-65
2023/07/04 09:19:05;;;;;;;7.88;1.65;;;;;;;32.84;28.69;101090.06;4953308;28;20138;-65
2023/07/04 09:21:32;;;;;;;4.20;1.95;;;;;;;33.01;28.89;101094.56;4954194;28;20034;-66
2023/07/04 09:24:01;;;;;;;8.23;2.15;;;;;;;33.39;28.06;101089.47;4937944;28;20472;-65
2023/07/04 09:26:32;;;;;;;4.55;1.48;;;;;;;33.43;28.03;101092.53;4938003;28;20027;-65
2023/07/04 09:28:58;;;;;;;6.22;1.52;;;;;;;33.77;28.10;101090.97;4955263;28;20042;-65
2023/07/04 09:31:26;;;;;;;5.43;1.55;;;;;;;34.00;26.61;101074.84;4953947;28;20122;-65
2023/07/04 09:33:53;;;;;;;4.88;1.77;;;;;;;33.89;27.71;101085.16;4969895;28;20035;-64
2023/07/04 09:36:19;;;;;;;7.38;1.50;;;;;;;33.81;26.86;101078.16;4953974;28;20039;-65
2023/07/04 09:38:55;;;;;;;4.50;1.90;;;;;;;34.07;26.66;101069.84;4954159;28;20090;-66
2023/07/04 09:41:25;;;;;;;5.03;1.92;;;;;;;34.39;26.28;101075.97;4953930;28;20038;-65
2023/07/04 09:44:09;;;;;;;7.80;1.80;;;;;;;34.61;26.65;101073.72;4955353;28;20059;-64
2023/07/04 09:46:35;;;;;;;4.53;1.45;;;;;;;34.70;26.24;101083.19;4940475;28;20459;-64
2023/07/04 09:49:35;;;;;;;6.47;3.03;;;;;;;34.98;26.01;101076.91;4954223;28;20039;-64
2023/07/04 09:52:03;;;;;;;7.45;1.55;;;;;;;35.22;26.13;101082.72;4946915;28;20106;-64
2023/07/04 09:54:36;;;;;;;3.17;1.30;;;;;;;35.46;25.46;101080.03;4955019;28;20057;-65
2023/07/04 09:57:23;;;;;;;4.65;2.22;;;;;;;35.40;25.82;101084.00;4953543;28;20040;-64
2023/07/04 09:59:52;;;;;;;8.77;2.10;;;;;;;35.65;25.60;101081.91;4953533;28;20031;-64
2023/07/04 10:02:19;;;;;;;7.97;2.35;;;;;;;36.08;24.75;101090.53;4953572;28;20578;-65
2023/07/04 10:04:49;;;;;;;61.35;58.00;;;;;;;36.44;25.43;101094.66;4952659;28;20035;-65
2023/07/04 10:07:16;;;;;;;5.25;1.77;;;;;;;35.97;25.39;101095.34;4937926;28;20381;-64
2023/07/04 10:09:57;;;;;;;49.10;46.25;;;;;;;36.25;24.98;101092.91;4937343;28;20130;-66
2023/07/04 10:12:24;;;;;;;5.35;2.20;;;;;;;36.54;24.65;101100.19;4967125;28;20031;-64
2023/07/04 10:14:54;;;;;;;6.32;1.95;;;;;;;36.22;24.89;101097.94;4937387;28;20031;-64
2023/07/04 10:17:27;;;;;;;5.85;1.77;;;;;;;36.52;25.05;101101.59;4937063;28;20394;-65
2023/07/04 10:19:56;;;;;;;5.95;1.73;;;;;;;36.89;23.89;101100.91;4954546;28;20043;-64
2023/07/04 10:22:32;;;;;;;5.35;1.98;;;;;;;37.01;24.03;101107.78;4969328;28;20058;-64
2023/07/04 10:24:59;;;;;;;5.90;1.95;;;;;;;37.14;23.90;101109.84;4953457;29;20047;-64
2023/07/04 10:27:34;;;;;;;5.35;2.38;;;;;;;36.90;23.95;101099.78;4952402;29;20046;-64
2023/07/04 10:30:03;;;;;;;5.57;2.45;;;;;;;37.02;24.04;101089.84;4953672;29;20035;-64
2023/07/04 10:32:30;;;;;;;6.90;2.50;;;;;;;37.12;24.21;101098.13;4953297;29;20106;-64
2023/07/04 10:34:57;;;;;;;6.00;1.50;;;;;;;36.49;24.19;101100.19;4936991;29;20421;-65
2023/07/04 10:37:29;;;;;;;6.97;1.60;;;;;;;35.99;24.69;101093.09;4953706;28;20051;-65
2023/07/04 10:39:56;;;;;;;;;;;;;;;35.61;25.54;101105.09;4954063;29;20499;-65
2023/07/04 10:42:46;;;;;;;5.20;2.72;;;;;;;35.83;24.32;101108.28;4934148;29;20001;-65
2023/07/04 10:45:14;;;;;;;5.97;1.67;;;;;;;35.90;24.77;101092.06;4947349;29;20106;-64
2023/07/04 10:47:41;;;;;;;6.57;1.83;;;;;;;36.29;24.52;101091.19;4953440;29;20046;-64
2023/07/04 10:50:22;;;;;;;8.30;2.10;;;;;;;35.61;25.30;101097.56;4921525;29;20031;-64
2023/07/04 10:52:48;;;;;;;7.60;2.10;;;;;;;35.17;25.05;101090.25;4953191;28;20039;-64
2023/07/04 10:55:21;;;;;;;8.45;2.33;;;;;;;35.24;25.27;101093.56;4937109;29;20376;-66
2023/07/04 10:57:56;;;;;;;4.65;2.40;;;;;;;35.86;25.06;101090.97;4953233;29;20039;-64
2023/07/04 11:00:26;;;;;;;4.03;2.20;;;;;;;36.28;24.61;101092.31;4938098;29;20063;-64
2023/07/04 11:02:59;;;;;;;10.23;2.47;;;;;;;36.46;24.23;101091.59;4956438;28;20047;-69
2023/07/04 11:05:32;;;;;;;5.70;2.53;;;;;;;36.65;23.99;101084.16;4940717;28;20110;-65
2023/07/04 11:07:59;;;;;;;8.82;2.80;;;;;;;36.96;23.61;101085.50;4957007;28;20034;-65
2023/07/04 11:10:24;;;;;;;5.97;2.53;;;;;;;36.87;24.67;101081.66;4957968;28;20078;-64
2023/07/04 11:12:53;;;;;;;6.30;2.33;;;;;;;36.70;24.19;101086.88;4924651;28;20023;-63
2023/07/04 11:15:22;;;;;;;7.90;2.72;;;;;;;36.83;23.95;101086.16;4957947;28;20498;-63
2023/07/04 11:17:49;;;;;;;5.60;2.05;;;;;;;37.05;23.89;101086.47;4956524;28;20067;-63
2023/07/04 11:20:42;;;;;;;6.07;2.90;;;;;;;37.46;23.87;101088.75;4956495;29;20399;-63
2023/07/04 11:23:18;;;;;;;6.80;3.00;;;;;;;37.66;23.28;101082.88;4958810;28;20039;-63
2023/07/04 11:25:43;;;;;;;11.43;2.47;;;;;;;38.03;23.16;101076.41;4940920;29;20031;-63